createdAt,value
2022-12-01T00:02:18.490Z,101901.06
2022-12-01T00:04:45.237Z,101920.66
2022-12-01T00:07:11.896Z,101928.41
2022-12-01T00:09:57.186Z,101924.97
2022-12-01T00:12:23.972Z,101919.47
2022-12-01T00:14:55.105Z,101916.78
2022-12-01T00:17:22.213Z,101922.91
2022-12-01T00:19:49.065Z,101923.56
2022-12-01T00:22:15.917Z,101926.75
2022-12-01T00:24:42.566Z,101925.38
2022-12-01T00:27:09.223Z,101929.59
2022-12-01T00:29:35.885Z,101916.34
2022-12-01T00:32:06.451Z,101926.13
2022-12-01T00:34:33.119Z,101930.75
2022-12-01T00:37:00.543Z,101923.66
2022-12-01T00:39:27.280Z,101925.38
2022-12-01T00:41:54.133Z,101927.31
2022-12-01T00:44:20.785Z,101923.41
2022-12-01T00:46:47.445Z,101920.22
2022-12-01T00:49:14.518Z,101916.56
2022-12-01T00:51:41.460Z,101919.25
2022-12-01T00:54:08.139Z,101914.84
2022-12-01T00:56:34.792Z,101907.41
2022-12-01T00:59:01.444Z,101901.91
2022-12-01T01:01:28.166Z,101895.91
2022-12-01T01:03:54.861Z,101879.88
2022-12-01T01:06:21.536Z,101882.03
2022-12-01T01:08:48.168Z,101879.13
2022-12-01T01:11:14.827Z,101874.69
2022-12-01T01:13:41.600Z,101869.66
2022-12-01T01:16:14.275Z,101861.69
2022-12-01T01:18:42.060Z,101859.56
2022-12-01T01:21:11.924Z,101858.81
2022-12-01T01:23:38.641Z,101849.13
2022-12-01T01:26:14.936Z,101860.88
2022-12-01T01:28:42.072Z,101850.88
2022-12-01T01:31:10.965Z,101861.09
2022-12-01T01:33:38.242Z,101857.88
2022-12-01T01:36:06.343Z,101861.53
2022-12-01T01:38:34.195Z,101865.63
2022-12-01T01:41:01.710Z,101857.69
2022-12-01T01:43:53.164Z,101847.69
2022-12-01T01:46:28.562Z,101855.41
2022-12-01T01:48:57.065Z,101858.09
2022-12-01T01:51:34.092Z,101859.19
2022-12-01T01:54:24.619Z,101858.34
2022-12-01T01:56:52.402Z,101863.72
2022-12-01T01:59:24.613Z,101857.03
2022-12-01T02:01:59.896Z,101857.03
2022-12-01T02:04:27.099Z,101860.03
2022-12-01T02:06:53.864Z,101858.53
2022-12-01T02:09:20.682Z,101873.28
2022-12-01T02:12:12.123Z,101881.34
2022-12-01T02:14:57.247Z,101883.03
2022-12-01T02:17:45.516Z,101889.72
2022-12-01T02:20:40.909Z,101902.06
2022-12-01T02:23:29.255Z,101904.88
2022-12-01T02:25:58.715Z,101907.69
2022-12-01T02:28:34.336Z,101905.94
2022-12-01T02:31:22.846Z,101900.47
2022-12-01T02:33:59.411Z,101910.25
2022-12-01T02:36:28.999Z,101918.34
2022-12-01T02:39:04.234Z,101913.59
2022-12-01T02:41:36.792Z,101913.47
2022-12-01T02:44:17.097Z,101910.69
2022-12-01T02:47:01.268Z,101916.91
2022-12-01T02:49:35.702Z,101912.50
2022-12-01T02:52:05.586Z,101917.03
2022-12-01T02:54:33.555Z,101918.44
2022-12-01T02:57:00.366Z,101922.84
2022-12-01T02:59:27.037Z,101910.13
2022-12-01T03:02:17.152Z,101899.72
2022-12-01T03:04:52.865Z,101900.38
2022-12-01T03:07:33.418Z,101901.31
2022-12-01T03:10:40.794Z,101901.22
2022-12-01T03:13:15.963Z,101895.94
2022-12-01T03:16:05.816Z,101897.22
2022-12-01T03:18:54.201Z,101896.69
2022-12-01T03:21:35.854Z,101887.56
2022-12-01T03:24:06.759Z,101883.25
2022-12-01T03:26:35.577Z,101883.03
2022-12-01T03:29:22.495Z,101881.31
2022-12-01T03:31:53.450Z,101894.88
2022-12-01T03:34:34.612Z,101886.69
2022-12-01T03:37:05.422Z,101894.00
2022-12-01T03:39:33.571Z,101897.78
2022-12-01T03:42:05.854Z,101895.72
2022-12-01T03:44:41.787Z,101901.00
2022-12-01T03:47:15.823Z,101891.31
2022-12-01T03:49:43.226Z,101887.97
2022-12-01T03:52:37.062Z,101897.03
2022-12-01T03:55:29.617Z,101897.78
2022-12-01T03:58:11.396Z,101920.69
2022-12-01T04:00:38.660Z,101925.75
2022-12-01T04:03:05.776Z,101915.75
2022-12-01T04:05:34.312Z,101923.56
2022-12-01T04:08:01.555Z,101924.31
2022-12-01T04:10:28.252Z,101932.19
2022-12-01T04:12:59.378Z,101928.97
2022-12-01T04:15:27.301Z,101933.47
2022-12-01T04:17:54.038Z,101939.06
2022-12-01T04:20:21.654Z,101935.31
2022-12-01T04:22:48.742Z,101935.84
2022-12-01T04:25:15.463Z,101932.94
2022-12-01T04:27:42.228Z,101933.81
2022-12-01T04:30:09.711Z,101933.59
2022-12-01T04:32:40.527Z,101931.88
2022-12-01T04:35:08.810Z,101931.88
2022-12-01T04:37:35.565Z,101928.22
2022-12-01T04:40:02.227Z,101924.88
2022-12-01T04:42:28.902Z,101928.22
2022-12-01T04:44:55.659Z,101929.19
2022-12-01T04:47:22.332Z,101929.06
2022-12-01T04:49:49.396Z,101926.72
2022-12-01T04:52:16.276Z,101919.28
2022-12-01T04:54:43.287Z,101910.03
2022-12-01T04:57:09.987Z,101904.00
2022-12-01T04:59:36.716Z,101901.31
2022-12-01T05:02:04.337Z,101893.50
2022-12-01T05:04:32.675Z,101889.06
2022-12-01T05:06:59.435Z,101889.72
2022-12-01T05:09:26.103Z,101891.00
2022-12-01T05:11:52.765Z,101889.06
2022-12-01T05:14:19.494Z,101885.09
2022-12-01T05:16:46.215Z,101883.03
2022-12-01T05:19:31.447Z,101881.19
2022-12-01T05:21:58.148Z,101892.72
2022-12-01T05:24:24.835Z,101891.97
2022-12-01T05:26:51.648Z,101892.72
2022-12-01T05:29:18.363Z,101895.19
2022-12-01T05:31:46.412Z,101907.69
2022-12-01T05:34:13.418Z,101895.41
2022-12-01T05:36:40.108Z,101894.34
2022-12-01T05:39:06.775Z,101897.03
2022-12-01T05:41:33.501Z,101912.06
2022-12-01T05:44:00.255Z,101897.88
2022-12-01T05:46:27.004Z,101904.44
2022-12-01T05:48:53.747Z,101903.06
2022-12-01T05:51:20.521Z,101902.16
2022-12-01T05:53:47.693Z,101911.31
2022-12-01T05:56:14.427Z,101914.13
2022-12-01T05:58:41.086Z,101916.59
2022-12-01T06:01:08.407Z,101918.94
2022-12-01T06:03:35.280Z,101917.88
2022-12-01T06:06:02.273Z,101923.56
2022-12-01T06:08:29.027Z,101926.81
2022-12-01T06:10:55.685Z,101922.41
2022-12-01T06:13:22.555Z,101927.66
2022-12-01T06:15:57.572Z,101932.84
2022-12-01T06:18:25.292Z,101930.69
2022-12-01T06:20:52.363Z,101935.53
2022-12-01T06:23:19.228Z,101934.03
2022-12-01T06:25:45.922Z,101934.47
2022-12-01T06:28:12.683Z,101940.03
2022-12-01T06:30:39.419Z,101949.50
2022-12-01T06:33:06.587Z,101944.97
2022-12-01T06:35:33.480Z,101938.75
2022-12-01T06:38:00.282Z,101938.34
2022-12-01T06:40:27.733Z,101943.03
2022-12-01T06:42:54.451Z,101944.78
2022-12-01T06:45:21.209Z,101946.72
2022-12-01T06:47:48.628Z,101945.88
2022-12-01T06:50:15.420Z,101948.56
2022-12-01T06:52:42.133Z,101949.59
2022-12-01T06:55:09.180Z,101953.94
2022-12-01T06:57:36.064Z,101954.69
2022-12-01T07:00:04.414Z,101959.41
2022-12-01T07:02:31.562Z,101954.78
2022-12-01T07:04:58.254Z,101966.50
2022-12-01T07:07:24.935Z,101969.94
2022-12-01T07:09:51.898Z,101961.34
2022-12-01T07:12:18.866Z,101970.38
2022-12-01T07:14:45.517Z,101971.22
2022-12-01T07:17:12.209Z,101971.03
2022-12-01T07:19:39.357Z,101974.66
2022-12-01T07:22:06.063Z,101975.53
2022-12-01T07:24:32.730Z,101973.06
2022-12-01T07:26:59.485Z,101969.72
2022-12-01T07:29:26.128Z,101980.91
2022-12-01T07:31:52.864Z,101980.69
2022-12-01T07:34:19.564Z,101991.25
2022-12-01T07:36:46.206Z,101987.59
2022-12-01T07:39:12.968Z,101983.19
2022-12-01T07:41:39.666Z,101985.88
2022-12-01T07:44:06.320Z,101983.94
2022-12-01T07:46:33.207Z,101985.97
2022-12-01T07:49:00.503Z,101977.69
2022-12-01T07:51:27.455Z,101976.19
2022-12-01T07:53:54.955Z,101985.22
2022-12-01T07:56:22.990Z,101978.22
2022-12-01T07:58:49.708Z,101991.44
2022-12-01T08:01:19.623Z,101984.34
2022-12-01T08:03:52.085Z,101992.44
2022-12-01T08:06:19.611Z,101985.97
2022-12-01T08:08:46.731Z,101996.06
2022-12-01T08:11:17.963Z,101999.41
2022-12-01T08:13:45.029Z,102004.13
2022-12-01T08:16:17.060Z,102000.69
2022-12-01T08:18:44.723Z,102001.34
2022-12-01T08:21:13.433Z,102011.00
2022-12-01T08:23:41.707Z,102012.94
2022-12-01T08:26:12.909Z,102018.03
2022-12-01T08:28:40.109Z,102013.19
2022-12-01T08:31:10.696Z,102019.63
2022-12-01T08:33:37.502Z,102013.41
2022-12-01T08:36:05.580Z,102009.88
2022-12-01T08:38:32.627Z,102010.81
2022-12-01T08:41:03.099Z,102016.00
2022-12-01T08:43:55.841Z,102016.09
2022-12-01T08:46:16.824Z,102017.50
2022-12-01T08:48:43.803Z,102020.19
2022-12-01T08:51:13.578Z,102026.13
2022-12-01T08:53:45.513Z,102025.25
2022-12-01T08:56:18.951Z,102019.22
2022-12-01T08:58:45.910Z,102033.63
2022-12-01T09:01:15.167Z,102034.50
2022-12-01T09:03:42.963Z,102036.88
2022-12-01T09:06:20.778Z,102020.75
2022-12-01T09:08:47.763Z,102018.56
2022-12-01T09:11:18.977Z,102028.47
2022-12-01T09:13:52.938Z,102025.59
2022-12-01T09:16:21.502Z,102020.31
2022-12-01T09:18:48.760Z,102017.63
2022-12-01T09:21:27.093Z,102012.13
2022-12-01T09:23:54.427Z,102027.94
2022-12-01T09:26:21.407Z,102027.19
2022-12-01T09:28:50.090Z,102023.75
2022-12-01T09:31:18.595Z,102027.19
2022-12-01T09:33:45.581Z,102025.06
2022-12-01T09:36:12.473Z,102027.31
2022-12-01T09:38:39.931Z,102027.31
2022-12-01T09:41:18.845Z,102017.41
2022-12-01T09:43:49.499Z,102019.22
2022-12-01T09:46:24.558Z,102021.28
2022-12-01T09:48:53.527Z,102014.81
2022-12-01T09:51:22.426Z,102021.47
2022-12-01T09:53:54.182Z,102021.94
2022-12-01T09:56:26.320Z,102016.44
2022-12-01T09:58:57.474Z,102015.47
2022-12-01T10:01:33.661Z,102017.94
2022-12-01T10:04:07.911Z,102007.63
2022-12-01T10:06:59.627Z,102007.81
2022-12-01T10:09:52.472Z,102006.97
2022-12-01T10:12:23.894Z,101999.53
2022-12-01T10:14:50.883Z,101996.53
2022-12-01T10:17:31.630Z,101992.84
2022-12-01T10:20:04.480Z,101990.91
2022-12-01T10:22:54.519Z,101980.91
2022-12-01T10:25:29.073Z,101984.03
2022-12-01T10:28:11.187Z,101990.59
2022-12-01T10:30:49.225Z,101986.38
2022-12-01T10:33:21.889Z,101983.00
2022-12-01T10:35:48.648Z,101987.75
2022-12-01T10:38:27.703Z,101990.13
2022-12-01T10:40:55.571Z,101990.75
2022-12-01T10:43:32.992Z,101987.50
2022-12-01T10:46:01.760Z,101983.19
2022-12-01T10:48:29.277Z,101985.03
2022-12-01T10:50:57.555Z,101985.78
2022-12-01T10:53:24.294Z,101982.34
2022-12-01T10:55:58.273Z,101987.03
2022-12-01T10:58:24.919Z,101979.06
2022-12-01T11:01:01.690Z,101984.88
2022-12-01T11:03:32.388Z,101979.25
2022-12-01T11:06:01.244Z,101974.63
2022-12-01T11:08:41.215Z,101979.88
2022-12-01T11:11:26.298Z,101977.81
2022-12-01T11:13:54.311Z,101974.75
2022-12-01T11:16:43.444Z,101968.25
2022-12-01T11:19:25.141Z,101971.47
2022-12-01T11:22:18.705Z,101957.69
2022-12-01T11:24:54.490Z,101967.56
2022-12-01T11:27:24.482Z,101966.66
2022-12-01T11:30:04.930Z,101953.13
2022-12-01T11:32:35.475Z,101970.00
2022-12-01T11:35:04.541Z,101972.16
2022-12-01T11:37:36.043Z,101971.78
2022-12-01T11:40:09.460Z,101970.84
2022-12-01T11:42:37.508Z,101963.13
2022-12-01T11:45:28.855Z,101964.59
2022-12-01T11:48:12.838Z,101962.88
2022-12-01T11:50:42.257Z,101959.59
2022-12-01T11:53:29.287Z,101956.16
2022-12-01T11:56:18.107Z,101960.09
2022-12-01T11:58:47.411Z,101960.63
2022-12-01T12:01:32.467Z,101955.78
2022-12-01T12:04:19.665Z,101949.41
2022-12-01T12:07:17.673Z,101953.50
2022-12-01T12:09:53.484Z,101950.38
2022-12-01T12:12:58.673Z,101945.00
2022-12-01T12:15:28.409Z,101946.69
2022-12-01T12:17:55.136Z,101934.44
2022-12-01T12:20:39.482Z,101935.72
2022-12-01T12:23:35.468Z,101940.56
2022-12-01T12:26:11.193Z,101949.06
2022-12-01T12:28:49.723Z,101943.25
2022-12-01T12:31:22.548Z,101939.81
2022-12-01T12:34:06.940Z,101936.28
2022-12-01T12:36:56.478Z,101939.25
2022-12-01T12:39:32.498Z,101934.56
2022-12-01T12:42:04.000Z,101929.53
2022-12-01T12:44:39.560Z,101926.56
2022-12-01T12:47:35.327Z,101922.19
2022-12-01T12:50:16.044Z,101929.78
2022-12-01T12:52:49.066Z,101923.09
2022-12-01T12:55:30.799Z,101926.94
2022-12-01T12:58:10.924Z,101924.72
2022-12-01T13:00:44.149Z,101914.84
2022-12-01T13:03:44.334Z,101919.97
2022-12-01T13:06:16.312Z,101916.78
2022-12-01T13:08:53.138Z,101915.91
2022-12-01T13:11:30.856Z,101920.22
2022-12-01T13:14:02.204Z,101921.53
2022-12-01T13:16:36.407Z,101920.97
2022-12-01T13:19:10.763Z,101927.31
2022-12-01T13:21:41.516Z,101920.69
2022-12-01T13:24:12.372Z,101919.19
2022-12-01T13:26:39.931Z,101913.78
2022-12-01T13:29:07.871Z,101912.09
2022-12-01T13:31:44.108Z,101916.63
2022-12-01T13:34:19.224Z,101917.66
2022-12-01T13:36:53.980Z,101920.16
2022-12-01T13:39:25.091Z,101910.34
2022-12-01T13:42:00.574Z,101909.66
2022-12-01T13:44:40.904Z,101902.38
2022-12-01T13:47:10.764Z,101904.75
2022-12-01T13:49:47.362Z,101896.41
2022-12-01T13:52:23.580Z,101895.94
2022-12-01T13:55:08.318Z,101903.91
2022-12-01T13:57:39.020Z,101906.97
2022-12-01T14:00:31.936Z,101893.47
2022-12-01T14:03:20.201Z,101896.41
2022-12-01T14:05:53.411Z,101894.19
2022-12-01T14:08:26.177Z,101896.16
2022-12-01T14:11:03.609Z,101899.53
2022-12-01T14:13:31.761Z,101899.84
2022-12-01T14:16:00.870Z,101899.19
2022-12-01T14:18:40.389Z,101909.88
2022-12-01T14:21:10.521Z,101908.25
2022-12-01T14:23:40.148Z,101906.84
2022-12-01T14:26:19.307Z,101905.66
2022-12-01T14:28:55.272Z,101909.81
2022-12-01T14:31:34.769Z,101904.63
2022-12-01T14:34:10.367Z,101905.94
2022-12-01T14:36:52.700Z,101916.72
2022-12-01T14:39:25.181Z,101911.97
2022-12-01T14:42:43.944Z,101911.31
2022-12-01T14:45:14.092Z,101905.31
2022-12-01T14:47:49.902Z,101899.53
2022-12-01T14:50:34.675Z,101896.59
2022-12-01T14:53:14.472Z,101899.72
2022-12-01T14:55:43.731Z,101900.78
2022-12-01T14:58:20.332Z,101892.06
2022-12-01T15:01:13.604Z,101893.06
2022-12-01T15:03:54.672Z,101883.13
2022-12-01T15:06:24.691Z,101885.50
2022-12-01T15:12:02.465Z,101891.78
2022-12-01T15:14:38.570Z,101897.16
2022-12-01T15:17:07.092Z,101898.03
2022-12-01T15:19:38.258Z,101894.25
2022-12-01T15:22:08.084Z,101895.84
2022-12-01T15:24:34.918Z,101905.13
2022-12-01T15:27:04.040Z,101905.66
2022-12-01T15:29:44.292Z,101902.97
2022-12-01T15:32:16.312Z,101894.25
2022-12-01T15:34:45.198Z,101894.16
2022-12-01T15:37:14.839Z,101905.38
2022-12-01T15:39:46.757Z,101902.13
2022-12-01T15:42:25.467Z,101895.84
2022-12-01T15:45:21.434Z,101905.13
2022-12-01T15:47:49.048Z,101899.66
2022-12-01T15:50:33.614Z,101898.03
2022-12-01T15:53:03.639Z,101901.91
2022-12-01T15:55:32.144Z,101896.31
2022-12-01T15:57:59.972Z,101906.44
2022-12-01T16:00:27.034Z,101900.41
2022-12-01T16:02:56.063Z,101897.88
2022-12-01T16:05:33.086Z,101899.38
2022-12-01T16:08:17.886Z,101895.56
2022-12-01T16:10:45.232Z,101900.66
2022-12-01T16:13:35.271Z,101899.56
2022-12-01T16:16:23.161Z,101898.63
2022-12-01T16:18:59.978Z,101908.19
2022-12-01T16:21:27.296Z,101905.38
2022-12-01T16:24:02.371Z,101901.50
2022-12-01T16:26:29.715Z,101893.97
2022-12-01T16:28:57.105Z,101896.97
2022-12-01T16:31:25.909Z,101888.06
2022-12-01T16:34:13.856Z,101887.09
2022-12-01T16:36:50.257Z,101891.94
2022-12-01T16:39:17.038Z,101901.84
2022-12-01T16:41:44.977Z,101898.28
2022-12-01T16:44:28.113Z,101894.19
2022-12-01T16:46:55.995Z,101900.88
2022-12-01T16:49:23.082Z,101901.53
2022-12-01T16:51:55.933Z,101898.97
2022-12-01T16:54:23.773Z,101910.78
2022-12-01T16:56:51.273Z,101902.81
2022-12-01T16:59:17.953Z,101907.53
2022-12-01T17:01:44.667Z,101894.09
2022-12-01T17:04:11.685Z,101904.44
2022-12-01T17:06:38.660Z,101897.88
2022-12-01T17:09:05.456Z,101895.63
2022-12-01T17:11:32.527Z,101891.66
2022-12-01T17:13:59.280Z,101888.22
2022-12-01T17:16:26.188Z,101889.91
2022-12-01T17:18:52.916Z,101893.91
2022-12-01T17:21:19.582Z,101890.91
2022-12-01T17:23:46.524Z,101892.94
2022-12-01T17:26:15.515Z,101884.75
2022-12-01T17:28:42.259Z,101884.00
2022-12-01T17:31:09.487Z,101880.88
2022-12-01T17:33:36.776Z,101884.53
2022-12-01T17:36:21.920Z,101891.56
2022-12-01T17:38:49.034Z,101878.41
2022-12-01T17:41:22.143Z,101890.34
2022-12-01T17:43:49.172Z,101895.94
2022-12-01T17:46:16.009Z,101888.63
2022-12-01T17:48:45.087Z,101891.22
2022-12-01T17:51:13.467Z,101889.06
2022-12-01T17:53:40.527Z,101888.41
2022-12-01T17:56:12.095Z,101886.03
2022-12-01T17:58:39.254Z,101882.19
2022-12-01T18:01:07.428Z,101895.09
2022-12-01T18:03:34.086Z,101899.47
2022-12-01T18:06:02.408Z,101888.63
2022-12-01T18:08:30.296Z,101887.66
2022-12-01T18:11:02.395Z,101894.53
2022-12-01T18:13:29.374Z,101885.41
2022-12-01T18:15:56.115Z,101892.50
2022-12-01T18:18:22.836Z,101890.47
2022-12-01T18:20:49.513Z,101890.03
2022-12-01T18:23:16.176Z,101890.56
2022-12-01T18:25:42.869Z,101893.03
2022-12-01T18:28:11.252Z,101888.84
2022-12-01T18:30:38.893Z,101889.81
2022-12-01T18:33:08.808Z,101901.41
2022-12-01T18:35:35.480Z,101894.00
2022-12-01T18:38:02.194Z,101897.88
2022-12-01T18:40:28.885Z,101901.66
2022-12-01T18:42:55.606Z,101905.00
2022-12-01T18:45:22.278Z,101895.31
2022-12-01T18:47:49.109Z,101892.84
2022-12-01T18:50:15.863Z,101900.69
2022-12-01T18:52:42.783Z,101896.81
2022-12-01T18:55:09.818Z,101899.63
2022-12-01T18:57:36.526Z,101900.91
2022-12-01T19:00:06.216Z,101887.47
2022-12-01T19:02:32.969Z,101892.72
2022-12-01T19:05:00.003Z,101894.53
2022-12-01T19:07:29.722Z,101892.28
2022-12-01T19:09:56.988Z,101886.91
2022-12-01T19:12:23.655Z,101893.03
2022-12-01T19:14:53.138Z,101895.72
2022-12-01T19:17:20.159Z,101896.72
2022-12-01T19:19:46.963Z,101894.22
2022-12-01T19:22:13.631Z,101898.41
2022-12-01T19:24:40.295Z,101905.44
2022-12-01T19:27:07.004Z,101899.16
2022-12-01T19:29:33.852Z,101894.78
2022-12-01T19:32:00.804Z,101903.69
2022-12-01T19:34:27.640Z,101903.03
2022-12-01T19:36:54.565Z,101907.47
2022-12-01T19:39:21.430Z,101896.47
2022-12-01T19:41:48.384Z,101893.03
2022-12-01T19:44:15.086Z,101899.59
2022-12-01T19:46:41.904Z,101899.59
2022-12-01T19:49:10.383Z,101898.66
2022-12-01T19:51:39.127Z,101900.91
2022-12-01T19:54:08.541Z,101894.88
2022-12-01T19:56:35.226Z,101893.69
2022-12-01T19:59:02.007Z,101893.56
2022-12-01T20:01:29.114Z,101898.53
2022-12-01T20:03:56.177Z,101896.78
2022-12-01T20:06:28.325Z,101898.41
2022-12-01T20:08:56.988Z,101896.38
2022-12-01T20:11:24.264Z,101895.41
2022-12-01T20:13:51.779Z,101898.31
2022-12-01T20:16:21.743Z,101888.44
2022-12-01T20:18:49.022Z,101897.13
2022-12-01T20:21:19.503Z,101901.00
2022-12-01T20:23:55.495Z,101887.78
2022-12-01T20:26:26.150Z,101892.28
2022-12-01T20:29:04.927Z,101891.63
2022-12-01T20:31:33.057Z,101897.00
2022-12-01T20:34:02.075Z,101904.31
2022-12-01T20:36:29.071Z,101905.06
2022-12-01T20:38:55.838Z,101901.41
2022-12-01T20:41:23.062Z,101907.00
2022-12-01T20:43:49.997Z,101904.22
2022-12-01T20:46:17.166Z,101893.34
2022-12-01T20:48:44.399Z,101900.56
2022-12-01T20:51:13.126Z,101901.41
2022-12-01T20:53:40.172Z,101899.50
2022-12-01T20:56:09.037Z,101896.78
2022-12-01T20:58:37.927Z,101899.28
2022-12-01T21:01:13.079Z,101900.25
2022-12-01T21:03:41.204Z,101897.13
2022-12-01T21:06:08.508Z,101898.19
2022-12-01T21:08:37.823Z,101894.97
2022-12-01T21:11:13.656Z,101898.09
2022-12-01T21:13:43.203Z,101903.66
2022-12-01T21:16:16.044Z,101905.06
2022-12-01T21:18:49.768Z,101911.50
2022-12-01T21:21:24.836Z,101911.28
2022-12-01T21:24:00.748Z,101911.16
2022-12-01T21:26:27.467Z,101913.00
2022-12-01T21:28:55.952Z,101915.06
2022-12-01T21:31:22.680Z,101909.69
2022-12-01T21:33:49.840Z,101897.66
2022-12-01T21:36:17.565Z,101907.09
2022-12-01T21:38:45.162Z,101894.00
2022-12-01T21:41:25.339Z,101895.94
2022-12-01T21:43:52.373Z,101893.34
2022-12-01T21:46:19.151Z,101887.66
2022-12-01T21:48:48.678Z,101888.63
2022-12-01T21:51:19.364Z,101890.13
2022-12-01T21:53:47.578Z,101884.97
2022-12-01T21:56:27.639Z,101889.81
2022-12-01T21:58:58.504Z,101878.84
2022-12-01T22:01:30.426Z,101881.53
2022-12-01T22:04:02.066Z,101874.44
2022-12-01T22:06:40.942Z,101872.69
2022-12-01T22:09:33.287Z,101876.16
2022-12-01T22:12:11.168Z,101882.38
2022-12-01T22:14:38.111Z,101889.47
2022-12-01T22:17:08.045Z,101881.41
2022-12-01T22:19:38.421Z,101884.97
2022-12-01T22:22:11.133Z,101888.19
2022-12-01T22:24:40.817Z,101884.97
2022-12-01T22:27:25.776Z,101891.97
2022-12-01T22:29:57.463Z,101893.88
2022-12-01T22:32:29.390Z,101896.69
2022-12-01T22:34:59.144Z,101898.94
2022-12-01T22:37:35.684Z,101900.88
2022-12-01T22:40:02.495Z,101899.81
2022-12-01T22:42:29.312Z,101900.13
2022-12-01T22:44:59.903Z,101900.22
2022-12-01T22:47:28.984Z,101897.09
2022-12-01T22:49:56.065Z,101902.25
2022-12-01T22:52:28.536Z,101890.56
2022-12-01T22:54:55.323Z,101901.50
2022-12-01T22:57:33.451Z,101901.06
2022-12-01T23:00:17.806Z,101896.88
2022-12-01T23:02:44.774Z,101911.19
2022-12-01T23:05:19.071Z,101908.59
2022-12-01T23:07:46.098Z,101901.50
2022-12-01T23:10:20.251Z,101901.28
2022-12-01T23:12:49.367Z,101904.94
2022-12-01T23:15:34.035Z,101904.69
2022-12-01T23:18:16.112Z,101908.56
2022-12-01T23:20:44.418Z,101909.66
2022-12-01T23:23:16.099Z,101900.84
2022-12-01T23:25:44.451Z,101897.78
2022-12-01T23:28:12.288Z,101899.63
2022-12-01T23:30:41.282Z,101890.81
2022-12-01T23:33:22.967Z,101892.41
2022-12-01T23:36:14.874Z,101897.13
2022-12-01T23:38:43.512Z,101898.22
2022-12-01T23:41:25.451Z,101902.50
2022-12-01T23:44:01.853Z,101901.88
2022-12-01T23:46:28.668Z,101894.34
2022-12-01T23:48:56.784Z,101890.16
2022-12-01T23:51:24.650Z,101890.81
2022-12-01T23:53:52.759Z,101884.50
2022-12-01T23:56:21.582Z,101890.41
2022-12-01T23:58:48.314Z,101883.31
